Time;durP1;ratioP1;P1;durP2;ratioP2;P2;SDS_P1;SDS_P2;PMS_P1;PMS_P2;Temp;Humidity;BMP_temperature;BMP_pressure;BME280_temperature;BME280_humidity;BME280_pressure;Samples;Min_cycle;Max_cycle;Signal;HPM_P1;HPM_P2
2021/06/21 00:00:33;;;;;;;10.02;3.58;;;18.90;1.00;;;;;;5018232;28;20030;-90
2021/06/21 00:02:58;;;;;;;7.50;3.90;;;18.90;1.00;;;;;;5032351;28;20030;-90
2021/06/21 00:05:24;;;;;;;11.82;3.70;;;18.90;1.00;;;;;;5016868;28;20026;-90
2021/06/21 00:07:50;;;;;;;9.73;3.90;;;18.90;1.00;;;;;;5031765;28;20036;-90
2021/06/21 00:10:17;;;;;;;7.57;3.30;;;19.00;1.00;;;;;;5033554;28;20029;-90
2021/06/21 00:12:44;;;;;;;11.63;3.50;;;19.00;1.00;;;;;;5035616;28;20109;-90
2021/06/21 00:15:15;;;;;;;12.68;3.47;;;19.00;1.00;;;;;;5034632;28;20030;-90
2021/06/21 00:17:41;;;;;;;9.95;3.53;;;19.00;1.00;;;;;;5030948;28;20183;-90
2021/06/21 00:20:07;;;;;;;9.70;3.13;;;19.10;1.00;;;;;;5035352;28;20068;-90
2021/06/21 00:22:33;;;;;;;9.90;3.60;;;19.00;1.00;;;;;;5035153;28;20032;-90
2021/06/21 00:24:58;;;;;;;6.40;3.33;;;19.00;1.00;;;;;;5035055;28;20069;-91
2021/06/21 00:27:25;;;;;;;9.20;2.90;;;19.00;1.00;;;;;;5035397;28;20026;-91
2021/06/21 00:29:51;;;;;;;7.80;3.35;;;19.00;1.00;;;;;;5035607;28;20034;-90
2021/06/21 00:32:17;;;;;;;9.63;3.35;;;19.00;1.00;;;;;;5035939;28;20025;-91
2021/06/21 00:34:43;;;;;;;9.35;3.85;;;19.00;1.00;;;;;;5034796;28;20034;-91
2021/06/21 00:37:08;;;;;;;6.63;3.50;;;18.90;1.00;;;;;;5034870;28;20139;-90
2021/06/21 00:39:34;;;;;;;10.73;3.80;;;18.80;1.00;;;;;;5035242;28;20044;-90
2021/06/21 00:42:00;;;;;;;7.97;3.55;;;18.80;1.00;;;;;;5017924;28;20020;-90
2021/06/21 00:44:25;;;;;;;7.50;3.33;;;18.80;1.00;;;;;;5035594;28;20386;-90
2021/06/21 00:46:51;;;;;;;14.50;3.83;;;18.90;1.00;;;;;;5034677;28;20563;-91
2021/06/21 00:49:17;;;;;;;9.10;3.83;;;18.90;1.00;;;;;;5035077;28;20446;-91
2021/06/21 00:51:43;;;;;;;8.23;3.67;;;18.80;1.00;;;;;;5034610;28;20029;-90
2021/06/21 00:54:08;;;;;;;8.10;3.30;;;18.90;1.00;;;;;;5035387;28;20094;-90
2021/06/21 00:56:34;;;;;;;11.07;3.65;;;19.00;1.00;;;;;;5035670;28;20037;-90
2021/06/21 00:59:02;;;;;;;10.98;3.42;;;18.90;1.00;;;;;;5034571;28;20021;-90
2021/06/21 01:01:28;;;;;;;7.35;3.58;;;19.30;1.00;;;;;;5035022;28;20030;-91
2021/06/21 01:03:54;;;;;;;8.73;3.55;;;19.10;1.00;;;;;;5021140;28;20032;-91
2021/06/21 01:06:20;;;;;;;10.93;3.28;;;19.10;1.00;;;;;;5034540;28;20025;-90
2021/06/21 01:08:46;;;;;;;10.65;3.63;;;19.20;1.00;;;;;;5020456;28;20033;-90
2021/06/21 01:11:12;;;;;;;8.65;3.35;;;19.10;1.00;;;;;;5034856;28;20477;-91
2021/06/21 01:13:56;;;;;;;8.10;3.60;;;19.10;1.00;;;;;;5025797;28;20049;-90
2021/06/21 01:16:32;;;;;;;4.65;2.70;;;19.20;1.00;;;;;;5035020;28;20073;-90
2021/06/21 01:19:26;;;;;;;10.80;3.20;;;19.10;1.00;;;;;;5033725;28;20045;-91
2021/06/21 01:22:00;;;;;;;9.38;3.22;;;19.10;1.00;;;;;;4955555;28;20149;-90
2021/06/21 01:24:38;;;;;;;9.73;3.22;;;19.20;1.00;;;;;;4955310;28;20023;-90
2021/06/21 01:27:27;;;;;;;12.65;3.05;;;19.20;1.00;;;;;;4954547;28;20039;-90
2021/06/21 01:30:06;;;;;;;9.65;3.05;;;19.20;1.00;;;;;;4954973;28;20079;-90
2021/06/21 01:32:49;;;;;;;7.50;3.13;;;19.10;1.00;;;;;;4955367;28;20039;-90
2021/06/21 01:35:38;;;;;;;13.10;2.83;;;19.10;1.00;;;;;;4935256;29;20118;-90
2021/06/21 01:38:07;;;;;;;9.75;2.85;;;19.10;1.00;;;;;;4954327;28;20098;-90
2021/06/21 01:40:41;;;;;;;10.70;3.15;;;19.00;1.00;;;;;;4955028;28;20447;-90
2021/06/21 01:43:10;;;;;;;15.50;3.03;;;19.00;1.00;;;;;;4938035;29;20487;-91
2021/06/21 01:45:36;;;;;;;8.52;3.08;;;19.00;1.00;;;;;;4960221;28;20051;-91
2021/06/21 01:48:04;;;;;;;8.25;3.42;;;19.00;1.00;;;;;;4942809;28;20084;-90
2021/06/21 01:50:30;;;;;;;10.20;3.00;;;19.00;1.00;;;;;;4958342;28;20039;-91
2021/06/21 01:53:18;;;;;;;12.10;3.15;;;18.90;1.00;;;;;;4938715;29;20039;-90
2021/06/21 01:56:06;;;;;;;8.93;2.78;;;18.90;1.00;;;;;;4957858;28;20049;-90
2021/06/21 01:58:34;;;;;;;8.93;2.92;;;18.70;1.00;;;;;;4995877;28;20497;-89
2021/06/21 02:01:01;;;;;;;7.65;2.60;;;18.70;1.00;;;;;;5036720;28;20409;-91
2021/06/21 02:03:28;;;;;;;10.23;3.10;;;18.70;1.00;;;;;;5034998;28;20022;-91
2021/06/21 02:05:55;;;;;;;10.25;3.20;;;18.60;1.00;;;;;;5034391;28;20466;-90
2021/06/21 02:08:22;;;;;;;10.13;3.00;;;18.60;1.00;;;;;;5033764;28;20022;-90
2021/06/21 02:10:50;;;;;;;6.03;2.40;;;18.80;1.00;;;;;;5020243;28;20068;-90
2021/06/21 02:13:19;;;;;;;9.98;3.58;;;18.90;1.00;;;;;;5033614;28;20021;-90
2021/06/21 02:15:45;;;;;;;9.13;3.33;;;18.90;1.00;;;;;;5033499;28;20132;-90
2021/06/21 02:18:12;;;;;;;8.45;2.75;;;18.90;1.00;;;;;;5016588;28;20242;-89
2021/06/21 02:20:39;;;;;;;7.18;2.83;;;18.80;1.00;;;;;;5029201;28;20045;-90
2021/06/21 02:23:06;;;;;;;7.40;2.97;;;18.90;1.00;;;;;;5033245;28;20072;-90
2021/06/21 02:25:33;;;;;;;6.47;2.80;;;18.90;1.00;;;;;;5033238;28;20026;-90
2021/06/21 02:27:59;;;;;;;12.50;3.35;;;18.90;1.00;;;;;;5033154;28;20021;-90
2021/06/21 02:30:27;;;;;;;10.02;2.80;;;18.90;1.00;;;;;;5033095;28;20432;-91
2021/06/21 02:32:52;;;;;;;8.50;2.90;;;19.00;1.00;;;;;;5032138;28;20091;-90
2021/06/21 02:35:18;;;;;;;8.65;2.67;;;19.00;1.00;;;;;;5033422;28;20394;-91
2021/06/21 02:37:44;;;;;;;15.88;3.47;;;18.80;1.00;;;;;;5032906;28;20017;-91
2021/06/21 02:40:14;;;;;;;10.13;2.78;;;18.90;1.00;;;;;;5033182;28;20041;-90
2021/06/21 02:42:40;;;;;;;7.60;3.00;;;18.80;1.00;;;;;;5019032;28;20033;-91
2021/06/21 02:45:07;;;;;;;5.70;2.95;;;18.80;1.00;;;;;;5032471;28;20021;-90
2021/06/21 02:47:33;;;;;;;10.13;3.03;;;18.80;1.00;;;;;;5016716;28;20025;-90
2021/06/21 02:49:59;;;;;;;10.90;3.30;;;18.80;1.00;;;;;;5032789;28;20441;-90
2021/06/21 02:52:31;;;;;;;10.30;3.10;;;18.70;1.00;;;;;;5032819;28;20134;-91
2021/06/21 02:55:06;;;;;;;13.50;3.47;;;18.80;1.00;;;;;;5032656;28;20052;-91
2021/06/21 02:57:44;;;;;;;7.47;3.00;;;18.90;1.00;;;;;;5019087;28;20394;-91
2021/06/21 03:00:10;;;;;;;9.95;3.30;;;18.90;1.00;;;;;;5015588;28;20477;-91
2021/06/21 03:02:39;;;;;;;7.97;3.25;;;19.00;1.00;;;;;;5033216;28;20030;-90
2021/06/21 03:05:06;;;;;;;9.63;3.17;;;19.00;1.00;;;;;;5033032;28;20053;-91
2021/06/21 03:07:33;;;;;;;8.98;3.22;;;19.00;1.00;;;;;;5032925;28;20378;-90
2021/06/21 03:10:00;;;;;;;7.82;2.90;;;19.00;1.00;;;;;;5032523;28;20105;-90
2021/06/21 03:12:29;;;;;;;11.38;3.30;;;18.90;1.00;;;;;;5032606;28;20021;-91
2021/06/21 03:14:55;;;;;;;10.25;3.55;;;18.90;1.00;;;;;;5032193;28;20022;-91
2021/06/21 03:17:22;;;;;;;8.32;3.75;;;19.10;1.00;;;;;;5033618;28;20034;-90
2021/06/21 03:19:50;;;;;;;12.38;3.30;;;18.90;1.00;;;;;;5032733;28;20049;-90
2021/06/21 03:22:20;;;;;;;9.25;3.03;;;18.90;1.00;;;;;;5032403;28;20405;-91
2021/06/21 03:24:56;;;;;;;8.95;3.17;;;18.80;1.00;;;;;;5032458;28;20115;-90
2021/06/21 03:27:29;;;;;;;7.72;3.45;;;18.80;1.00;;;;;;5032499;28;20045;-90
2021/06/21 03:29:56;;;;;;;8.73;2.92;;;18.80;1.00;;;;;;5014929;28;20079;-90
2021/06/21 03:32:26;;;;;;;9.07;2.72;;;18.90;1.00;;;;;;5032847;28;20029;-90
2021/06/21 03:35:00;;;;;;;5.68;2.50;;;18.90;1.00;;;;;;5018668;28;20047;-90
2021/06/21 03:37:28;;;;;;;7.47;2.45;;;18.90;1.00;;;;;;5018958;28;20103;-91
2021/06/21 03:39:54;;;;;;;6.50;2.83;;;19.00;1.00;;;;;;5032483;28;20497;-90
2021/06/21 03:42:20;;;;;;;6.10;2.10;;;19.10;1.00;;;;;;5016421;28;20097;-90
2021/06/21 03:44:47;;;;;;;7.65;2.60;;;19.00;1.00;;;;;;5034793;28;20021;-90
2021/06/21 03:47:13;;;;;;;4.60;2.33;;;19.00;1.00;;;;;;5022245;28;20030;-90
2021/06/21 03:49:41;;;;;;;8.35;2.50;;;18.80;1.00;;;;;;5035847;28;20451;-90
2021/06/21 03:52:07;;;;;;;9.13;2.67;;;18.80;1.00;;;;;;5036018;28;20052;-90
2021/06/21 03:54:33;;;;;;;6.57;2.70;;;18.80;1.00;;;;;;5036247;28;20033;-91
2021/06/21 03:56:58;;;;;;;5.30;2.30;;;18.80;1.00;;;;;;5018117;28;20040;-90
2021/06/21 03:59:24;;;;;;;8.80;2.75;;;18.80;1.00;;;;;;5036270;28;20494;-90
2021/06/21 04:01:50;;;;;;;7.22;2.65;;;18.70;1.00;;;;;;5035873;28;20083;-90
2021/06/21 04:04:16;;;;;;;5.97;2.33;;;18.80;1.00;;;;;;5035500;28;20124;-90
2021/06/21 04:06:41;;;;;;;7.03;2.53;;;18.80;1.00;;;;;;5035995;28;20108;-90
2021/06/21 04:09:07;;;;;;;7.18;2.80;;;18.80;1.00;;;;;;5017855;28;20517;-90
2021/06/21 04:11:33;;;;;;;5.72;3.00;;;18.70;1.00;;;;;;5036054;28;20026;-90
2021/06/21 04:13:59;;;;;;;7.57;2.88;;;18.60;1.00;;;;;;5035672;28;20489;-90
2021/06/21 04:16:24;;;;;;;8.80;3.00;;;18.60;1.00;;;;;;5035241;28;20037;-88
2021/06/21 04:18:51;;;;;;;9.00;3.28;;;18.60;1.00;;;;;;5034974;28;20498;-90
2021/06/21 04:21:16;;;;;;;4.90;2.47;;;18.60;1.00;;;;;;5034883;28;20033;-89
2021/06/21 04:23:42;;;;;;;7.13;2.88;;;18.70;1.00;;;;;;5018659;28;20029;-90
2021/06/21 04:26:08;;;;;;;5.82;2.58;;;18.60;1.00;;;;;;5035354;28;20056;-90
2021/06/21 04:28:33;;;;;;;7.18;2.90;;;18.70;1.00;;;;;;5034752;28;20025;-90
2021/06/21 04:30:59;;;;;;;9.80;2.90;;;18.70;1.00;;;;;;5021995;28;20030;-90
2021/06/21 04:33:25;;;;;;;10.07;3.05;;;18.70;1.00;;;;;;5019374;28;20033;-91
2021/06/21 04:35:51;;;;;;;9.98;3.20;;;18.60;1.00;;;;;;5017548;28;20041;-91
2021/06/21 04:38:22;;;;;;;5.68;2.95;;;18.70;1.00;;;;;;5021059;28;20523;-91
2021/06/21 04:40:49;;;;;;;8.93;2.90;;;18.80;1.00;;;;;;5021473;28;20068;-91
2021/06/21 04:43:15;;;;;;;7.18;2.72;;;18.80;1.00;;;;;;5020744;28;20026;-91
2021/06/21 04:45:40;;;;;;;7.97;3.10;;;18.80;1.00;;;;;;5035254;28;20056;-91
2021/06/21 04:48:06;;;;;;;14.57;3.40;;;18.80;1.00;;;;;;5017751;28;20381;-91
2021/06/21 04:50:35;;;;;;;8.40;3.35;;;18.90;1.00;;;;;;5035736;28;20470;-91
2021/06/21 04:53:00;;;;;;;9.27;3.28;;;18.90;1.00;;;;;;5035045;28;20033;-91
2021/06/21 04:55:26;;;;;;;7.97;3.40;;;18.90;1.00;;;;;;5020430;28;20040;-90
2021/06/21 04:57:52;;;;;;;9.32;3.50;;;19.10;1.00;;;;;;5020681;28;20033;-91
2021/06/21 05:00:20;;;;;;;6.32;3.13;;;19.20;1.00;;;;;;5034965;28;20546;-91
2021/06/21 05:02:47;;;;;;;9.23;3.42;;;19.30;1.00;;;;;;5035390;28;20068;-91
2021/06/21 05:05:13;;;;;;;9.95;3.22;;;19.30;1.00;;;;;;5034607;28;20453;-91
2021/06/21 05:07:40;;;;;;;7.13;3.30;;;19.20;1.00;;;;;;5025391;28;20076;-94
2021/06/21 05:10:08;;;;;;;9.50;3.40;;;19.30;1.00;;;;;;5035843;28;20033;-94
2021/06/21 05:12:35;;;;;;;7.63;3.75;;;19.40;1.00;;;;;;5036464;28;20536;-96
2021/06/21 05:15:00;;;;;;;8.52;3.20;;;19.40;1.00;;;;;;5036953;28;20029;-96
2021/06/21 05:17:28;;;;;;;9.35;3.60;;;19.60;1.00;;;;;;5038656;28;20037;-95
2021/06/21 05:19:53;;;;;;;10.57;3.70;;;19.70;1.00;;;;;;5036881;28;20108;-96
2021/06/21 05:22:19;;;;;;;7.35;3.05;;;19.80;1.00;;;;;;5038541;28;20040;-96
2021/06/21 05:24:45;;;;;;;8.55;3.15;;;20.00;1.00;;;;;;5035826;28;20569;-96
2021/06/21 05:27:11;;;;;;;7.45;3.78;;;20.00;1.00;;;;;;5020528;28;20426;-96
2021/06/21 05:29:36;;;;;;;7.35;3.38;;;20.00;1.00;;;;;;5020583;28;20044;-90
2021/06/21 05:32:03;;;;;;;9.82;3.40;;;19.90;1.00;;;;;;5034953;28;20030;-95
2021/06/21 05:34:29;;;;;;;7.13;3.47;;;19.80;1.00;;;;;;5020912;28;20037;-93
2021/06/21 05:36:55;;;;;;;12.02;3.60;;;20.00;1.00;;;;;;5035098;28;20036;-94
2021/06/21 05:39:21;;;;;;;5.65;3.00;;;20.10;1.00;;;;;;5019152;28;20018;-94
2021/06/21 05:41:46;;;;;;;9.02;3.70;;;19.90;1.00;;;;;;5034617;28;20545;-95
2021/06/21 05:44:12;;;;;;;10.20;3.47;;;20.00;1.00;;;;;;5034652;28;20394;-95
2021/06/21 05:46:38;;;;;;;9.50;3.72;;;19.90;1.00;;;;;;5034587;28;20033;-95
2021/06/21 05:49:04;;;;;;;7.50;3.80;;;20.00;1.00;;;;;;5033950;28;20025;-95
2021/06/21 05:51:30;;;;;;;9.82;3.63;;;20.20;1.00;;;;;;5019138;28;20040;-93
2021/06/21 05:53:55;;;;;;;8.30;3.63;;;20.20;1.00;;;;;;5018135;28;20493;-94
2021/06/21 05:56:21;;;;;;;9.50;4.30;;;20.10;1.00;;;;;;5017675;28;20506;-94
2021/06/21 05:58:46;;;;;;;11.07;4.63;;;20.20;1.00;;;;;;5034364;28;20103;-94
2021/06/21 06:01:12;;;;;;;10.32;4.03;;;20.10;1.00;;;;;;5030899;28;20032;-94
2021/06/21 06:03:38;;;;;;;10.55;4.45;;;20.30;1.00;;;;;;5034045;28;20379;-94
2021/06/21 06:06:04;;;;;;;8.35;4.30;;;20.40;1.00;;;;;;5033622;28;20029;-94
2021/06/21 06:08:29;;;;;;;9.18;4.13;;;20.50;1.00;;;;;;5034454;28;20052;-93
2021/06/21 06:10:55;;;;;;;8.15;3.08;;;20.70;1.00;;;;;;5034634;28;20029;-94
2021/06/21 06:13:21;;;;;;;9.55;3.00;;;20.80;1.00;;;;;;5034411;28;20042;-95
2021/06/21 06:15:46;;;;;;;7.80;3.20;;;20.80;1.00;;;;;;5034189;28;20072;-95
2021/06/21 06:18:12;;;;;;;11.95;3.30;;;21.00;1.00;;;;;;5034084;28;20054;-93
2021/06/21 06:20:38;;;;;;;8.57;3.45;;;21.10;1.00;;;;;;5013265;28;20514;-93
2021/06/21 06:23:05;;;;;;;4.78;3.10;;;21.40;1.00;;;;;;5011942;28;20026;-94
2021/06/21 06:25:36;;;;;;;7.93;3.35;;;21.60;1.00;;;;;;5012379;28;20026;-93
2021/06/21 06:28:03;;;;;;;8.50;3.40;;;21.70;1.00;;;;;;5012731;28;20037;-91
2021/06/21 06:30:28;;;;;;;10.65;3.47;;;21.90;1.00;;;;;;5012362;28;20018;-92
2021/06/21 06:32:54;;;;;;;6.80;3.38;;;22.00;1.00;;;;;;5013076;28;20391;-91
2021/06/21 06:35:20;;;;;;;8.63;3.60;;;21.80;1.00;;;;;;5012120;28;20049;-92
2021/06/21 06:37:48;;;;;;;10.55;3.33;;;21.80;1.00;;;;;;5028375;28;20021;-93
2021/06/21 06:40:15;;;;;;;7.35;2.92;;;21.90;1.00;;;;;;5012840;28;20026;-92
2021/06/21 06:42:41;;;;;;;7.38;3.15;;;22.10;1.00;;;;;;5011685;28;20040;-84
2021/06/21 06:45:07;;;;;;;8.88;2.90;;;21.90;1.00;;;;;;5011234;28;20033;-85
2021/06/21 06:47:34;;;;;;;6.80;3.35;;;21.90;1.00;;;;;;5011522;28;20030;-84
2021/06/21 06:50:00;;;;;;;7.72;2.92;;;21.50;1.00;;;;;;5010656;28;20088;-82
2021/06/21 06:52:25;;;;;;;9.23;3.05;;;21.20;1.00;;;;;;5010631;28;20029;-85
2021/06/21 06:57:37;;;;;;;9.07;3.50;;;21.30;1.00;;;;;;5011505;28;20030;-91
2021/06/21 07:00:11;;;;;;;6.40;3.00;;;21.30;1.00;;;;;;5012231;28;20036;-91
2021/06/21 07:02:37;;;;;;;8.48;3.13;;;21.30;1.00;;;;;;5011992;28;20018;-94
2021/06/21 07:05:04;;;;;;;5.10;3.03;;;21.30;1.00;;;;;;5014322;28;20029;-93
2021/06/21 07:07:30;;;;;;;5.85;2.85;;;21.30;1.00;;;;;;5009160;28;20486;-90
2021/06/21 07:09:56;;;;;;;10.52;2.63;;;21.30;1.00;;;;;;5011668;28;20040;-88
2021/06/21 07:12:22;;;;;;;7.18;2.83;;;21.30;1.00;;;;;;5011726;28;20113;-88
2021/06/21 07:14:47;;;;;;;8.57;3.30;;;21.50;1.00;;;;;;5011152;28;20129;-88
2021/06/21 07:17:13;;;;;;;7.60;3.40;;;21.60;1.00;;;;;;5011648;28;20045;-88
2021/06/21 07:19:40;;;;;;;6.63;3.22;;;21.60;1.00;;;;;;5024397;28;20222;-88
2021/06/21 07:22:07;;;;;;;9.18;3.25;;;21.60;1.00;;;;;;5034696;28;20413;-88
2021/06/21 07:24:33;;;;;;;5.72;3.10;;;21.50;1.00;;;;;;5034912;28;20025;-89
2021/06/21 07:26:59;;;;;;;7.63;3.20;;;21.50;1.00;;;;;;5017794;28;20060;-88
2021/06/21 07:29:25;;;;;;;8.20;3.65;;;21.50;1.00;;;;;;5035537;28;20047;-90
2021/06/21 07:31:51;;;;;;;10.40;3.70;;;21.60;1.00;;;;;;5021551;28;20032;-89
2021/06/21 07:34:17;;;;;;;9.60;4.40;;;21.70;1.00;;;;;;5035177;28;20105;-87
2021/06/21 07:36:42;;;;;;;5.57;4.22;;;21.70;1.00;;;;;;5034512;28;20115;-89
2021/06/21 07:39:08;;;;;;;9.68;3.80;;;21.60;1.00;;;;;;5017982;28;20032;-90
2021/06/21 07:41:34;;;;;;;8.00;3.80;;;21.70;1.00;;;;;;5019115;28;20034;-91
2021/06/21 07:44:00;;;;;;;11.30;3.65;;;21.80;1.00;;;;;;5021757;28;20049;-90
2021/06/21 07:46:26;;;;;;;11.10;3.85;;;21.90;1.00;;;;;;5035820;28;20112;-90
2021/06/21 07:48:52;;;;;;;8.73;3.25;;;22.10;1.00;;;;;;5035412;28;20504;-90
2021/06/21 07:51:18;;;;;;;7.50;3.08;;;22.20;1.00;;;;;;5018510;28;20033;-90
2021/06/21 07:53:45;;;;;;;5.60;2.90;;;22.30;1.00;;;;;;5018237;28;20061;-91
2021/06/21 07:56:13;;;;;;;7.40;3.33;;;22.40;1.00;;;;;;5034959;28;20107;-91
2021/06/21 07:58:41;;;;;;;8.25;2.95;;;22.20;1.00;;;;;;5023079;28;20044;-92
2021/06/21 08:01:08;;;;;;;4.95;3.60;;;22.30;1.00;;;;;;5035613;28;20037;-93
2021/06/21 08:03:34;;;;;;;8.80;2.80;;;22.50;1.00;;;;;;5035838;28;20513;-92
2021/06/21 08:06:03;;;;;;;7.97;2.80;;;22.60;1.00;;;;;;5018007;28;20041;-93
2021/06/21 08:08:30;;;;;;;8.82;2.80;;;22.70;1.00;;;;;;5036528;28;20254;-93
2021/06/21 08:10:56;;;;;;;7.32;2.95;;;22.60;1.00;;;;;;5021827;28;20113;-93
2021/06/21 08:13:22;;;;;;;9.00;2.83;;;22.80;1.00;;;;;;5022202;28;20041;-92
2021/06/21 08:15:48;;;;;;;6.32;2.90;;;22.80;1.00;;;;;;5022148;28;20042;-92
2021/06/21 08:18:14;;;;;;;6.80;2.38;;;23.00;1.00;;;;;;5018928;28;20053;-93
2021/06/21 08:20:42;;;;;;;7.07;2.92;;;23.10;1.00;;;;;;5031568;28;20049;-92
2021/06/21 08:23:12;;;;;;;5.90;2.53;;;23.10;1.00;;;;;;5035424;28;20086;-92
2021/06/21 08:25:38;;;;;;;6.80;2.22;;;23.10;1.00;;;;;;5035461;28;20038;-92
2021/06/21 08:28:04;;;;;;;6.32;2.13;;;23.30;1.00;;;;;;5035425;28;20029;-92
2021/06/21 08:30:31;;;;;;;6.88;2.55;;;23.30;1.00;;;;;;5034174;28;20504;-93
2021/06/21 08:32:57;;;;;;;6.07;2.90;;;23.50;1.00;;;;;;5035762;28;20042;-91
2021/06/21 08:35:23;;;;;;;7.97;2.60;;;23.60;1.00;;;;;;5035523;28;20049;-93
2021/06/21 08:37:48;;;;;;;9.70;2.80;;;23.70;1.00;;;;;;5021541;28;20390;-92
2021/06/21 08:40:15;;;;;;;9.23;3.10;;;23.80;1.00;;;;;;5034942;28;20030;-92
2021/06/21 08:42:42;;;;;;;7.68;2.50;;;23.90;1.00;;;;;;5034993;28;20021;-92
2021/06/21 08:45:09;;;;;;;7.93;2.28;;;23.90;1.00;;;;;;5034950;28;20481;-92
2021/06/21 08:47:36;;;;;;;6.10;2.30;;;24.00;1.00;;;;;;5035755;28;20036;-92
2021/06/21 08:50:07;;;;;;;12.30;2.80;;;24.10;1.00;;;;;;5034700;28;20117;-92
2021/06/21 08:52:33;;;;;;;8.70;2.65;;;24.10;1.00;;;;;;5035677;28;20485;-92
2021/06/21 08:55:05;;;;;;;6.75;2.35;;;24.20;1.00;;;;;;5023943;28;20037;-92
2021/06/21 08:57:39;;;;;;;6.25;2.75;;;24.30;1.00;;;;;;5036280;28;20029;-92
2021/06/21 09:00:11;;;;;;;6.00;2.33;;;24.40;1.00;;;;;;5035849;28;20486;-92
2021/06/21 09:02:36;;;;;;;5.50;2.35;;;24.40;1.00;;;;;;5034762;28;20025;-92
2021/06/21 09:05:07;;;;;;;8.45;2.45;;;24.60;1.00;;;;;;5035728;28;20025;-92
2021/06/21 09:07:32;;;;;;;10.90;2.85;;;24.70;1.00;;;;;;5035719;28;20064;-92
2021/06/21 09:10:01;;;;;;;7.22;2.45;;;24.90;1.00;;;;;;5032251;28;20033;-91
2021/06/21 09:12:31;;;;;;;5.43;2.13;;;24.90;1.00;;;;;;5036218;28;20029;-92
2021/06/21 09:15:02;;;;;;;7.45;2.50;;;24.90;1.00;;;;;;5036517;28;20036;-95
2021/06/21 09:17:30;;;;;;;7.22;2.40;;;25.00;1.00;;;;;;5035850;28;20028;-96
2021/06/21 09:20:07;;;;;;;6.07;1.83;;;25.00;1.00;;;;;;5032438;28;20051;-95
2021/06/21 09:22:50;;;;;;;7.65;2.47;;;25.20;1.00;;;;;;5034436;28;20496;-95
2021/06/21 09:25:16;;;;;;;9.93;2.70;;;25.30;1.00;;;;;;5036043;28;20025;-96
2021/06/21 09:27:52;;;;;;;5.50;2.00;;;25.30;1.00;;;;;;5022241;28;20026;-95
2021/06/21 09:30:18;;;;;;;9.93;2.63;;;25.40;1.00;;;;;;5019811;28;20025;-96
2021/06/21 09:32:50;;;;;;;6.18;2.33;;;25.60;99.90;;;;;;5036290;28;20022;-96
2021/06/21 09:35:31;;;;;;;9.50;2.60;;;25.60;99.90;;;;;;5034505;28;20051;-96
2021/06/21 09:37:58;;;;;;;11.68;2.30;;;25.60;99.90;;;;;;5035641;28;20033;-95
2021/06/21 09:40:28;;;;;;;8.85;2.42;;;25.60;99.90;;;;;;5034712;28;20053;-95
2021/06/21 09:42:54;;;;;;;8.27;2.30;;;26.00;99.90;;;;;;5033287;28;20033;-95
2021/06/21 09:45:20;;;;;;;7.78;2.60;;;26.30;99.90;;;;;;5033200;28;20036;-95
2021/06/21 09:47:46;;;;;;;10.20;2.55;;;26.50;99.90;;;;;;5035016;28;20123;-94
2021/06/21 09:50:18;;;;;;;7.97;2.67;;;27.00;99.90;;;;;;5039125;28;20057;-96
2021/06/21 09:52:53;;;;;;;8.60;2.45;;;27.30;99.90;;;;;;5038445;28;20033;-96
2021/06/21 09:55:27;;;;;;;7.55;2.35;;;27.80;99.90;;;;;;5035298;28;20041;-95
2021/06/21 09:58:25;;;;;;;12.43;3.00;;;28.40;99.90;;;;;;5038409;28;20025;-96
2021/06/21 10:01:26;;;;;;;9.20;2.90;;;28.60;99.90;;;;;;5024775;28;20418;-96
2021/06/21 10:03:51;;;;;;;11.85;2.72;;;28.50;99.90;;;;;;5026621;28;20041;-94
2021/06/21 10:06:17;;;;;;;11.15;2.97;;;28.10;99.90;;;;;;5017585;28;20041;-94
2021/06/21 10:08:47;;;;;;;8.55;2.85;;;28.10;99.90;;;;;;5016548;28;20048;-94
2021/06/21 10:11:33;;;;;;;11.55;3.22;;;28.10;99.90;;;;;;5019249;28;20025;-93
2021/06/21 10:14:17;;;;;;;16.38;3.22;;;28.30;99.90;;;;;;5019117;28;20029;-93
2021/06/21 10:16:45;;;;;;;9.50;3.20;;;28.30;99.90;;;;;;5019120;28;20041;-93
2021/06/21 10:19:12;;;;;;;11.68;3.20;;;28.10;99.90;;;;;;5016590;28;20046;-93
2021/06/21 10:21:43;;;;;;;10.80;3.10;;;28.00;99.90;;;;;;5012417;28;20025;-94
2021/06/21 10:24:12;;;;;;;7.57;3.03;;;27.50;99.90;;;;;;5013867;28;20080;-94
2021/06/21 10:26:39;;;;;;;11.52;2.80;;;27.50;99.90;;;;;;5014214;28;20529;-94
2021/06/21 10:29:05;;;;;;;11.30;3.47;;;27.80;99.90;;;;;;5012438;28;20171;-93
2021/06/21 10:31:31;;;;;;;11.15;3.20;;;27.60;99.90;;;;;;5013500;28;20061;-95
2021/06/21 10:33:59;;;;;;;8.90;2.75;;;27.20;99.90;;;;;;5012811;28;20507;-95
2021/06/21 10:36:44;;;;;;;10.90;3.58;;;27.20;99.90;;;;;;5015152;28;20121;-95
2021/06/21 10:39:17;;;;;;;7.00;3.17;;;27.00;99.90;;;;;;5013321;28;20141;-93
2021/06/21 10:42:08;;;;;;;13.00;3.60;;;26.90;99.90;;;;;;5010412;28;20106;-95
2021/06/21 10:44:56;;;;;;;12.55;3.70;;;26.90;99.90;;;;;;5014038;28;20030;-96
2021/06/21 10:47:35;;;;;;;15.50;4.72;;;27.30;99.90;;;;;;5016290;28;20430;-96
2021/06/21 10:50:16;;;;;;;13.02;4.00;;;27.50;99.90;;;;;;5017749;28;20022;-95
2021/06/21 10:52:51;;;;;;;11.25;3.63;;;27.30;99.90;;;;;;5016918;28;20257;-96
2021/06/21 10:55:26;;;;;;;12.20;3.95;;;27.40;99.90;;;;;;5014752;28;20037;-96
2021/06/21 10:57:57;;;;;;;8.35;3.53;;;27.40;99.90;;;;;;5014908;28;20034;-96
2021/06/21 11:00:42;;;;;;;14.38;3.47;;;27.30;99.90;;;;;;5013928;28;20026;-96
2021/06/21 11:03:33;;;;;;;13.68;3.55;;;27.50;99.90;;;;;;5014352;28;20509;-96
2021/06/21 11:06:08;;;;;;;16.20;3.80;;;27.40;99.90;;;;;;5012337;28;20030;-96
2021/06/21 11:08:39;;;;;;;9.98;3.83;;;27.20;99.90;;;;;;5014508;28;20018;-96
2021/06/21 11:11:34;;;;;;;11.85;3.45;;;27.50;99.90;;;;;;5012556;28;20026;-96
2021/06/21 11:14:24;;;;;;;10.77;3.60;;;27.60;99.90;;;;;;5012021;28;20398;-96
2021/06/21 11:17:11;;;;;;;13.18;4.22;;;27.40;99.90;;;;;;5013405;28;20506;-96
2021/06/21 11:19:41;;;;;;;13.23;3.47;;;27.50;99.90;;;;;;5022496;28;20148;-96
2021/06/21 11:22:07;;;;;;;10.15;3.20;;;27.40;99.90;;;;;;5032502;28;20033;-94
2021/06/21 11:24:53;;;;;;;11.23;3.45;;;27.30;99.90;;;;;;5034184;28;20052;-96
2021/06/21 11:27:25;;;;;;;11.00;3.72;;;27.20;99.90;;;;;;5001715;28;20110;-95
2021/06/21 11:29:57;;;;;;;12.07;3.50;;;27.30;99.90;;;;;;5032436;28;20057;-91
2021/06/21 11:32:24;;;;;;;10.60;3.58;;;27.50;99.90;;;;;;5032118;28;20079;-91
2021/06/21 11:35:00;;;;;;;9.27;3.20;;;27.60;99.90;;;;;;5031401;28;20034;-90
2021/06/21 11:37:47;;;;;;;8.30;2.95;;;27.40;99.90;;;;;;5032068;28;20025;-93
2021/06/21 11:40:12;;;;;;;11.05;2.90;;;27.60;99.90;;;;;;5017511;28;20124;-90
2021/06/21 11:42:56;;;;;;;13.50;3.40;;;27.80;99.90;;;;;;5031789;28;20108;-90
2021/06/21 11:45:58;;;;;;;9.43;3.30;;;27.80;99.90;;;;;;5017470;28;20021;-90
2021/06/21 11:48:30;;;;;;;8.65;3.28;;;27.90;99.90;;;;;;5017379;28;20059;-90
2021/06/21 11:50:57;;;;;;;13.85;3.55;;;28.10;99.90;;;;;;5031833;28;20044;-90
2021/06/21 11:53:25;;;;;;;10.75;3.60;;;27.70;99.90;;;;;;5030038;28;20069;-90
2021/06/21 11:55:51;;;;;;;9.32;3.08;;;27.80;99.90;;;;;;5031595;28;20124;-90
2021/06/21 11:58:30;;;;;;;6.80;2.67;;;28.00;99.90;;;;;;5030957;28;20506;-90
2021/06/21 12:01:13;;;;;;;7.72;3.25;;;28.10;99.90;;;;;;5031480;28;20036;-90
2021/06/21 12:03:43;;;;;;;11.77;3.08;;;28.30;99.90;;;;;;5031250;28;20029;-90
2021/06/21 12:06:15;;;;;;;7.05;2.80;;;28.50;99.90;;;;;;5034030;28;20029;-90
2021/06/21 12:08:41;;;;;;;8.35;3.00;;;28.60;99.90;;;;;;5029812;28;20021;-90
2021/06/21 12:11:19;;;;;;;7.43;2.97;;;28.90;99.90;;;;;;5034315;28;20037;-90
2021/06/21 12:13:59;;;;;;;7.55;2.88;;;28.90;99.90;;;;;;5034950;28;20421;-89
2021/06/21 12:16:26;;;;;;;9.50;3.55;;;29.50;99.90;;;;;;5034782;28;20034;-90
2021/06/21 12:18:55;;;;;;;12.98;3.42;;;30.50;99.90;;;;;;5034707;28;20498;-90
2021/06/21 12:21:29;;;;;;;6.35;2.80;;;31.50;99.90;;;;;;5035240;28;20029;-89
2021/06/21 12:23:54;;;;;;;9.18;2.72;;;31.40;99.90;;;;;;5034407;28;20030;-90
2021/06/21 12:26:20;;;;;;;8.80;3.00;;;32.80;99.90;;;;;;5019669;28;20029;-90
2021/06/21 12:28:45;;;;;;;5.25;2.67;;;33.00;99.90;;;;;;5034597;28;20517;-91
2021/06/21 12:31:16;;;;;;;7.15;2.30;;;32.40;99.90;;;;;;5020948;28;20117;-90
2021/06/21 12:33:43;;;;;;;6.22;2.25;;;33.30;99.90;;;;;;5034529;28;20596;-90
2021/06/21 12:36:13;;;;;;;6.82;2.60;;;33.30;99.90;;;;;;5016690;28;20382;-90
2021/06/21 12:38:57;;;;;;;6.55;2.30;;;34.30;99.90;;;;;;5030976;28;20060;-90
2021/06/21 12:41:30;;;;;;;8.25;2.95;;;34.10;99.90;;;;;;5014761;28;20029;-90
2021/06/21 12:44:11;;;;;;;9.95;2.42;;;34.40;99.90;;;;;;5020273;28;20060;-90
2021/06/21 12:46:42;;;;;;;9.13;2.80;;;34.70;99.90;;;;;;5034043;28;20075;-90
2021/06/21 12:49:11;;;;;;;6.47;2.40;;;34.70;99.90;;;;;;5020160;28;20112;-90
2021/06/21 12:51:38;;;;;;;5.82;2.10;;;34.20;99.90;;;;;;5034282;28;20040;-90
2021/06/21 12:54:04;;;;;;;8.85;2.58;;;34.10;99.90;;;;;;5034813;28;20029;-90
2021/06/21 12:56:40;;;;;;;7.68;2.78;;;33.30;99.90;;;;;;5017504;28;20033;-90
2021/06/21 12:59:24;;;;;;;8.48;2.72;;;32.60;99.90;;;;;;5033825;28;20036;-89
2021/06/21 13:01:49;;;;;;;5.20;2.83;;;33.10;99.90;;;;;;5034271;28;20409;-90
2021/06/21 13:04:17;;;;;;;8.27;2.50;;;32.90;99.90;;;;;;5033751;28;20037;-90